FFL750 KEYW-KJWN
Flight info
| Callsign | FFL750 |
|---|---|
| Flight time | 2h 1m |
| Altitude | 43000 |
| Route | BUFTT1 JAYMC KPASA Q99 CAMJO LENSE SWFFT BNA |
| Aircraft | C750/M-SBDE3FGHRWXY/S |
Departure
| Time | 2026-04-27 23:27 |
|---|---|
| Airport | Key West International Airport (KEYW) |
Arrival
| Time | 2026-04-28 01:29 |
|---|---|
| Airport | John C Tune Airport (KJWN) |
| Time | Latitude | Longitude | Altitude | Speed | Heading |
|---|---|---|---|---|---|
| 2026-04-27 22:31 | 24.55448 | -81.75702 | 6 ft | 0 kts | 359° |
| 2026-04-27 22:34 | 24.55444 | -81.75704 | 6 ft | 0 kts | 230° |
| 2026-04-27 22:35 | 24.55443 | -81.75702 | 6 ft | 0 kts | 175° |
| 2026-04-27 23:22 | 24.55438 | -81.75699 | 6 ft | 2 kts | 153° |
| 2026-04-27 23:22 | 24.55437 | -81.75680 | 6 ft | 4 kts | 81° |
| 2026-04-27 23:22 | 24.55442 | -81.75640 | 6 ft | 5 kts | 80° |
| 2026-04-27 23:22 | 24.55465 | -81.75606 | 6 ft | 6 kts | 31° |
| 2026-04-27 23:23 | 24.55510 | -81.75592 | 6 ft | 7 kts | 346° |
| 2026-04-27 23:23 | 24.55530 | -81.75643 | 6 ft | 9 kts | 271° |
| 2026-04-27 23:23 | 24.55529 | -81.75712 | 6 ft | 9 kts | 269° |
| 2026-04-27 23:23 | 24.55529 | -81.75775 | 6 ft | 8 kts | 269° |
| 2026-04-27 23:24 | 24.55528 | -81.75833 | 6 ft | 7 kts | 269° |
| 2026-04-27 23:24 | 24.55528 | -81.75902 | 6 ft | 11 kts | 269° |
| 2026-04-27 23:24 | 24.55526 | -81.75991 | 5 ft | 12 kts | 270° |
| 2026-04-27 23:24 | 24.55526 | -81.76079 | 5 ft | 11 kts | 269° |
| 2026-04-27 23:25 | 24.55524 | -81.76159 | 5 ft | 10 kts | 269° |
| 2026-04-27 23:25 | 24.55524 | -81.76253 | 5 ft | 14 kts | 270° |
| 2026-04-27 23:25 | 24.55522 | -81.76353 | 5 ft | 13 kts | 269° |
| 2026-04-27 23:25 | 24.55522 | -81.76446 | 5 ft | 12 kts | 269° |
| 2026-04-27 23:26 | 24.55521 | -81.76538 | 5 ft | 13 kts | 269° |
| 2026-04-27 23:26 | 24.55520 | -81.76601 | 5 ft | 9 kts | 269° |
| 2026-04-27 23:26 | 24.55549 | -81.76658 | 5 ft | 11 kts | 330° |
| 2026-04-27 23:26 | 24.55604 | -81.76652 | 4 ft | 6 kts | 69° |
| 2026-04-27 23:27 | 24.55608 | -81.76493 | 4 ft | 60 kts | 89° |
| 2026-04-27 23:27 | 24.55614 | -81.75758 | 7 ft | 137 kts | 89° |
| 2026-04-27 23:27 | 24.55623 | -81.74639 | 528 ft | 152 kts | 87° |
| 2026-04-27 23:27 | 24.55898 | -81.73498 | 1095 ft | 164 kts | 60° |
| 2026-04-27 23:28 | 24.56667 | -81.72510 | 1730 ft | 179 kts | 36° |
| 2026-04-27 23:28 | 24.57873 | -81.71972 | 2361 ft | 199 kts | 8° |
| 2026-04-27 23:28 | 24.59313 | -81.71952 | 3066 ft | 215 kts | 360° |
| 2026-04-27 23:28 | 24.60867 | -81.71963 | 3785 ft | 231 kts | 1° |
| 2026-04-27 23:29 | 24.62530 | -81.71941 | 4520 ft | 247 kts | 1° |
| 2026-04-27 23:29 | 24.64301 | -81.71918 | 5230 ft | 258 kts | 1° |
| 2026-04-27 23:29 | 24.66124 | -81.71902 | 5910 ft | 265 kts | 1° |
| 2026-04-27 23:29 | 24.67988 | -81.71884 | 6579 ft | 271 kts | 1° |
| 2026-04-27 23:30 | 24.69883 | -81.71865 | 7217 ft | 274 kts | 1° |
| 2026-04-27 23:30 | 24.71772 | -81.71570 | 7900 ft | 279 kts | 21° |
| 2026-04-27 23:30 | 24.73384 | -81.70418 | 9022 ft | 278 kts | 41° |
| 2026-04-27 23:30 | 24.74743 | -81.68874 | 9954 ft | 284 kts | 46° |
| 2026-04-27 23:31 | 24.76075 | -81.67282 | 10723 ft | 289 kts | 46° |
| 2026-04-27 23:31 | 24.77459 | -81.65656 | 11540 ft | 293 kts | 45° |
| 2026-04-27 23:31 | 24.78873 | -81.64018 | 12347 ft | 298 kts | 44° |
| 2026-04-27 23:31 | 24.80308 | -81.62349 | 13124 ft | 303 kts | 43° |
| 2026-04-27 23:32 | 24.81759 | -81.60649 | 13953 ft | 306 kts | 43° |
| 2026-04-27 23:32 | 24.83236 | -81.58933 | 14567 ft | 314 kts | 42° |
| 2026-04-27 23:32 | 24.84867 | -81.57228 | 14980 ft | 327 kts | 40° |
| 2026-04-27 23:32 | 24.86476 | -81.55460 | 15787 ft | 328 kts | 42° |
| 2026-04-27 23:33 | 24.88100 | -81.53673 | 16495 ft | 332 kts | 41° |
| 2026-04-27 23:33 | 24.89765 | -81.51892 | 17266 ft | 335 kts | 40° |
| 2026-04-27 23:33 | 24.91450 | -81.50093 | 18028 ft | 340 kts | 41° |
| 2026-04-27 23:33 | 24.93147 | -81.48260 | 18743 ft | 344 kts | 41° |
| 2026-04-27 23:34 | 24.94858 | -81.46407 | 19444 ft | 347 kts | 41° |
| 2026-04-27 23:34 | 24.96575 | -81.44555 | 20147 ft | 351 kts | 41° |
| 2026-04-27 23:34 | 24.98330 | -81.42664 | 20866 ft | 355 kts | 41° |
| 2026-04-27 23:34 | 25.00103 | -81.40750 | 21579 ft | 359 kts | 40° |
| 2026-04-27 23:35 | 25.01895 | -81.38813 | 22280 ft | 363 kts | 40° |
| 2026-04-27 23:35 | 25.03708 | -81.36853 | 23008 ft | 367 kts | 40° |
| 2026-04-27 23:35 | 25.05542 | -81.34871 | 23704 ft | 371 kts | 40° |
| 2026-04-27 23:35 | 25.07400 | -81.32862 | 24305 ft | 375 kts | 40° |
| 2026-04-27 23:36 | 25.09272 | -81.30836 | 24929 ft | 378 kts | 40° |
| 2026-04-27 23:36 | 25.11158 | -81.28793 | 25542 ft | 382 kts | 40° |
| 2026-04-27 23:36 | 25.13068 | -81.26725 | 26151 ft | 386 kts | 40° |
| 2026-04-27 23:36 | 25.14991 | -81.24640 | 26758 ft | 389 kts | 40° |
| 2026-04-27 23:37 | 25.16911 | -81.22559 | 27324 ft | 394 kts | 40° |
| 2026-04-27 23:37 | 25.18914 | -81.20392 | 27446 ft | 411 kts | 40° |
| 2026-04-27 23:37 | 25.20955 | -81.18175 | 28082 ft | 412 kts | 40° |
| 2026-04-27 23:37 | 25.23007 | -81.15940 | 28655 ft | 416 kts | 40° |
| 2026-04-27 23:38 | 25.25084 | -81.13686 | 29191 ft | 420 kts | 40° |
| 2026-04-27 23:38 | 25.27179 | -81.11413 | 29741 ft | 424 kts | 40° |
| 2026-04-27 23:38 | 25.29288 | -81.09118 | 30245 ft | 428 kts | 40° |
| 2026-04-27 23:38 | 25.31423 | -81.06794 | 30688 ft | 432 kts | 40° |
| 2026-04-27 23:39 | 25.33613 | -81.04500 | 31097 ft | 433 kts | 36° |
| 2026-04-27 23:39 | 25.36068 | -81.02579 | 31533 ft | 431 kts | 27° |
| 2026-04-27 23:39 | 25.38741 | -81.01092 | 32000 ft | 429 kts | 18° |
| 2026-04-27 23:39 | 25.41574 | -81.00070 | 32435 ft | 428 kts | 10° |
| 2026-04-27 23:40 | 25.44510 | -80.99531 | 32864 ft | 428 kts | 2° |
| 2026-04-27 23:40 | 25.47485 | -80.99383 | 33274 ft | 429 kts | 359° |
| 2026-04-27 23:40 | 25.50482 | -80.99257 | 33704 ft | 433 kts | 359° |
| 2026-04-27 23:40 | 25.53505 | -80.99117 | 34109 ft | 436 kts | 359° |
| 2026-04-27 23:41 | 25.56511 | -80.98985 | 34475 ft | 439 kts | 359° |
| 2026-04-27 23:41 | 25.59568 | -80.98859 | 34884 ft | 440 kts | 358° |
| 2026-04-27 23:41 | 25.62640 | -80.98730 | 35282 ft | 442 kts | 358° |
| 2026-04-27 23:41 | 25.65726 | -80.98595 | 35671 ft | 444 kts | 358° |
| 2026-04-27 23:42 | 25.68826 | -80.98460 | 36067 ft | 446 kts | 358° |
| 2026-04-27 23:42 | 25.71939 | -80.98328 | 36464 ft | 448 kts | 358° |
| 2026-04-27 23:42 | 25.75063 | -80.98194 | 36854 ft | 450 kts | 358° |
| 2026-04-27 23:42 | 25.78201 | -80.98058 | 37242 ft | 452 kts | 358° |
| 2026-04-27 23:43 | 25.81353 | -80.97922 | 37623 ft | 454 kts | 358° |
| 2026-04-27 23:43 | 25.84519 | -80.97786 | 38011 ft | 456 kts | 358° |
| 2026-04-27 23:43 | 25.87695 | -80.97649 | 38400 ft | 458 kts | 358° |
| 2026-04-27 23:43 | 25.90892 | -80.97511 | 38762 ft | 460 kts | 358° |
| 2026-04-27 23:44 | 25.94100 | -80.97373 | 39069 ft | 462 kts | 358° |
| 2026-04-27 23:44 | 25.97276 | -80.97235 | 39360 ft | 464 kts | 358° |
| 2026-04-27 23:44 | 26.00510 | -80.97096 | 39685 ft | 466 kts | 358° |
| 2026-04-27 23:44 | 26.03760 | -80.96955 | 39980 ft | 468 kts | 358° |
| 2026-04-27 23:45 | 26.07027 | -80.96814 | 40264 ft | 471 kts | 358° |
| 2026-04-27 23:45 | 26.10311 | -80.96671 | 40548 ft | 473 kts | 358° |
| 2026-04-27 23:45 | 26.13602 | -80.96529 | 40808 ft | 475 kts | 357° |
| 2026-04-27 23:45 | 26.16916 | -80.96386 | 41049 ft | 477 kts | 357° |
| 2026-04-27 23:46 | 26.20241 | -80.96241 | 41275 ft | 479 kts | 357° |
| 2026-04-27 23:46 | 26.23575 | -80.96096 | 41480 ft | 480 kts | 357° |
| 2026-04-27 23:46 | 26.26921 | -80.95951 | 41658 ft | 482 kts | 357° |
| 2026-04-27 23:46 | 26.30276 | -80.95806 | 41848 ft | 483 kts | 357° |
| 2026-04-27 23:47 | 26.33642 | -80.95665 | 41985 ft | 483 kts | 356° |
| 2026-04-27 23:47 | 26.36963 | -80.95841 | 42360 ft | 473 kts | 349° |
| 2026-04-27 23:47 | 26.40180 | -80.96461 | 42671 ft | 465 kts | 342° |
| 2026-04-27 23:47 | 26.43235 | -80.97483 | 43063 ft | 454 kts | 337° |
| 2026-04-27 23:48 | 26.48890 | -81.00708 | 43046 ft | 459 kts | 324° |
| 2026-04-27 23:48 | 26.54194 | -81.04598 | 43061 ft | 455 kts | 325° |
| 2026-04-27 23:49 | 26.59503 | -81.08479 | 43094 ft | 456 kts | 324° |
| 2026-04-27 23:49 | 26.64801 | -81.12373 | 43057 ft | 455 kts | 325° |
| 2026-04-27 23:50 | 26.70104 | -81.16263 | 43053 ft | 455 kts | 325° |
| 2026-04-27 23:50 | 26.75404 | -81.20163 | 43057 ft | 455 kts | 325° |
| 2026-04-27 23:51 | 26.80664 | -81.24033 | 43057 ft | 455 kts | 325° |
| 2026-04-27 23:51 | 26.85956 | -81.27934 | 43068 ft | 455 kts | 325° |
| 2026-04-27 23:52 | 26.91243 | -81.31834 | 43077 ft | 455 kts | 325° |
| 2026-04-27 23:52 | 26.96528 | -81.35724 | 43053 ft | 454 kts | 326° |
| 2026-04-27 23:53 | 27.02260 | -81.38745 | 43065 ft | 457 kts | 336° |
| 2026-04-27 23:53 | 27.08168 | -81.41384 | 43073 ft | 457 kts | 335° |
| 2026-04-27 23:54 | 27.14077 | -81.44023 | 43070 ft | 456 kts | 335° |
| 2026-04-27 23:54 | 27.19946 | -81.46644 | 43074 ft | 456 kts | 335° |
| 2026-04-27 23:55 | 27.25846 | -81.49287 | 43073 ft | 454 kts | 335° |
| 2026-04-27 23:55 | 27.31727 | -81.51920 | 43068 ft | 455 kts | 335° |
| 2026-04-27 23:56 | 27.37614 | -81.54561 | 43073 ft | 454 kts | 335° |
| 2026-04-27 23:56 | 27.43460 | -81.57187 | 43071 ft | 454 kts | 335° |
| 2026-04-27 23:57 | 27.49336 | -81.59828 | 43077 ft | 454 kts | 335° |
| 2026-04-27 23:57 | 27.55206 | -81.62470 | 43077 ft | 454 kts | 335° |
| 2026-04-27 23:58 | 27.61069 | -81.65112 | 43095 ft | 453 kts | 335° |
| 2026-04-27 23:58 | 27.66946 | -81.67764 | 43101 ft | 455 kts | 335° |
| 2026-04-27 23:59 | 27.72775 | -81.70395 | 43098 ft | 454 kts | 335° |
| 2026-04-27 23:59 | 27.78637 | -81.73047 | 43103 ft | 454 kts | 335° |
| 2026-04-28 00:00 | 27.84501 | -81.75701 | 43113 ft | 452 kts | 335° |
| 2026-04-28 00:00 | 27.90336 | -81.78346 | 43117 ft | 451 kts | 335° |
| 2026-04-28 00:01 | 27.96130 | -81.80975 | 43119 ft | 451 kts | 335° |
| 2026-04-28 00:01 | 28.01955 | -81.83621 | 43133 ft | 451 kts | 335° |
| 2026-04-28 00:02 | 28.07787 | -81.86274 | 43131 ft | 451 kts | 335° |
| 2026-04-28 00:02 | 28.13624 | -81.88932 | 43138 ft | 451 kts | 335° |
| 2026-04-28 00:03 | 28.19371 | -81.91742 | 43116 ft | 448 kts | 331° |
| 2026-04-28 00:03 | 28.24956 | -81.94924 | 43130 ft | 449 kts | 332° |
| 2026-04-28 00:04 | 28.33340 | -81.99689 | 43125 ft | 449 kts | 331° |
| 2026-04-28 00:05 | 28.37990 | -82.02330 | 43121 ft | 449 kts | 332° |
| 2026-04-28 00:05 | 28.43575 | -82.05514 | 43143 ft | 449 kts | 331° |
| 2026-04-28 00:06 | 28.50070 | -82.09220 | 43125 ft | 449 kts | 332° |
| 2026-04-28 00:06 | 28.54750 | -82.11895 | 43113 ft | 449 kts | 331° |
| 2026-04-28 00:07 | 28.60300 | -82.15069 | 43132 ft | 449 kts | 331° |
| 2026-04-28 00:07 | 28.65885 | -82.18267 | 43145 ft | 449 kts | 331° |
| 2026-04-28 00:08 | 28.71467 | -82.21467 | 43148 ft | 449 kts | 331° |
| 2026-04-28 00:08 | 28.77050 | -82.24673 | 43149 ft | 449 kts | 331° |
| 2026-04-28 00:09 | 28.82632 | -82.27880 | 43150 ft | 450 kts | 331° |
| 2026-04-28 00:09 | 28.88220 | -82.31096 | 43141 ft | 449 kts | 331° |
| 2026-04-28 00:10 | 28.93774 | -82.34295 | 43151 ft | 449 kts | 331° |
| 2026-04-28 00:10 | 28.99360 | -82.37517 | 43148 ft | 449 kts | 331° |
| 2026-04-28 00:11 | 29.04941 | -82.40740 | 43146 ft | 449 kts | 331° |
| 2026-04-28 00:11 | 29.10516 | -82.43964 | 43147 ft | 448 kts | 331° |
| 2026-04-28 00:12 | 29.16086 | -82.47188 | 43153 ft | 448 kts | 331° |
| 2026-04-28 00:12 | 29.21659 | -82.50415 | 43143 ft | 448 kts | 332° |
| 2026-04-28 00:13 | 29.27572 | -82.52783 | 43151 ft | 454 kts | 343° |
| 2026-04-28 00:13 | 29.33828 | -82.53743 | 43177 ft | 458 kts | 349° |
| 2026-04-28 00:14 | 29.40162 | -82.54556 | 43166 ft | 457 kts | 349° |
| 2026-04-28 00:14 | 29.46490 | -82.55345 | 43167 ft | 458 kts | 349° |
| 2026-04-28 00:15 | 29.52828 | -82.56147 | 43189 ft | 457 kts | 349° |
| 2026-04-28 00:15 | 29.59155 | -82.56944 | 43181 ft | 457 kts | 349° |
| 2026-04-28 00:16 | 29.65448 | -82.57740 | 43185 ft | 457 kts | 349° |
| 2026-04-28 00:16 | 29.71771 | -82.58540 | 43184 ft | 457 kts | 349° |
| 2026-04-28 00:17 | 29.78093 | -82.59341 | 43185 ft | 457 kts | 349° |
| 2026-04-28 00:17 | 29.84422 | -82.60144 | 43184 ft | 457 kts | 349° |
| 2026-04-28 00:18 | 29.90740 | -82.60946 | 43203 ft | 457 kts | 349° |
| 2026-04-28 00:18 | 29.97064 | -82.61751 | 43188 ft | 457 kts | 349° |
| 2026-04-28 00:19 | 30.03391 | -82.62556 | 43186 ft | 457 kts | 349° |
| 2026-04-28 00:19 | 30.09716 | -82.63363 | 43186 ft | 457 kts | 349° |
| 2026-04-28 00:20 | 30.15996 | -82.64165 | 43181 ft | 457 kts | 349° |
| 2026-04-28 00:20 | 30.22323 | -82.64974 | 43176 ft | 457 kts | 349° |
| 2026-04-28 00:21 | 30.28656 | -82.65784 | 43202 ft | 457 kts | 349° |
| 2026-04-28 00:21 | 30.34986 | -82.66595 | 43208 ft | 457 kts | 349° |
| 2026-04-28 00:22 | 30.41276 | -82.67403 | 43209 ft | 457 kts | 349° |
| 2026-04-28 00:22 | 30.47599 | -82.68241 | 43209 ft | 456 kts | 348° |
| 2026-04-28 00:23 | 30.53646 | -82.70209 | 43206 ft | 450 kts | 335° |
| 2026-04-28 00:23 | 30.59310 | -82.73307 | 43214 ft | 450 kts | 333° |
| 2026-04-28 00:24 | 30.64964 | -82.76416 | 43212 ft | 449 kts | 333° |
| 2026-04-28 00:24 | 30.70563 | -82.79533 | 43203 ft | 448 kts | 332° |
| 2026-04-28 00:25 | 30.76192 | -82.82652 | 43224 ft | 448 kts | 332° |
| 2026-04-28 00:25 | 30.81820 | -82.85783 | 43200 ft | 448 kts | 332° |
| 2026-04-28 00:26 | 30.87446 | -82.88914 | 43194 ft | 448 kts | 332° |
| 2026-04-28 00:26 | 30.93065 | -82.92047 | 43188 ft | 448 kts | 332° |
| 2026-04-28 00:27 | 30.98687 | -82.95184 | 43184 ft | 447 kts | 332° |
| 2026-04-28 00:27 | 31.04299 | -82.98321 | 43181 ft | 447 kts | 332° |
| 2026-04-28 00:28 | 31.09923 | -83.01468 | 43157 ft | 448 kts | 332° |
| 2026-04-28 00:28 | 31.15509 | -83.04598 | 43161 ft | 448 kts | 332° |
| 2026-04-28 00:29 | 31.21138 | -83.07756 | 43166 ft | 448 kts | 332° |
| 2026-04-28 00:29 | 31.26760 | -83.10914 | 43184 ft | 448 kts | 332° |
| 2026-04-28 00:30 | 31.32382 | -83.14077 | 43183 ft | 448 kts | 332° |
| 2026-04-28 00:30 | 31.37970 | -83.17225 | 43184 ft | 447 kts | 332° |
| 2026-04-28 00:31 | 31.43581 | -83.20390 | 43176 ft | 447 kts | 332° |
| 2026-04-28 00:31 | 31.49193 | -83.23559 | 43176 ft | 448 kts | 332° |
| 2026-04-28 00:32 | 31.54804 | -83.26733 | 43168 ft | 448 kts | 332° |
| 2026-04-28 00:32 | 31.60411 | -83.29908 | 43170 ft | 448 kts | 332° |
| 2026-04-28 00:33 | 31.66028 | -83.33094 | 43183 ft | 448 kts | 332° |
| 2026-04-28 00:33 | 31.71648 | -83.36285 | 43185 ft | 448 kts | 332° |
| 2026-04-28 00:34 | 31.77260 | -83.39476 | 43179 ft | 448 kts | 332° |
| 2026-04-28 00:34 | 31.82844 | -83.42656 | 43177 ft | 448 kts | 332° |
| 2026-04-28 00:35 | 31.88454 | -83.45854 | 43167 ft | 448 kts | 332° |
| 2026-04-28 00:35 | 31.94077 | -83.49064 | 43165 ft | 449 kts | 332° |
| 2026-04-28 00:36 | 31.99711 | -83.52286 | 43167 ft | 449 kts | 332° |
| 2026-04-28 00:36 | 32.05329 | -83.55502 | 43164 ft | 450 kts | 332° |
| 2026-04-28 00:37 | 32.10956 | -83.58728 | 43161 ft | 450 kts | 332° |
| 2026-04-28 00:37 | 32.16556 | -83.61943 | 43152 ft | 450 kts | 332° |
| 2026-04-28 00:38 | 32.22199 | -83.65187 | 43160 ft | 450 kts | 332° |
| 2026-04-28 00:38 | 32.27836 | -83.68432 | 43162 ft | 450 kts | 332° |
| 2026-04-28 00:39 | 32.33467 | -83.71678 | 43162 ft | 450 kts | 332° |
| 2026-04-28 00:39 | 32.39100 | -83.74930 | 43199 ft | 450 kts | 332° |
| 2026-04-28 00:40 | 32.44725 | -83.78181 | 43193 ft | 450 kts | 332° |
| 2026-04-28 00:40 | 32.50324 | -83.81423 | 43193 ft | 450 kts | 331° |
| 2026-04-28 00:41 | 32.55956 | -83.84688 | 43192 ft | 451 kts | 331° |
| 2026-04-28 00:41 | 32.61594 | -83.87961 | 43186 ft | 451 kts | 331° |
| 2026-04-28 00:42 | 32.67230 | -83.91237 | 43170 ft | 451 kts | 331° |
| 2026-04-28 00:42 | 32.72841 | -83.94504 | 43159 ft | 452 kts | 331° |
| 2026-04-28 00:43 | 32.78500 | -83.97802 | 43169 ft | 452 kts | 330° |
| 2026-04-28 00:43 | 32.84160 | -84.01107 | 43184 ft | 453 kts | 330° |
| 2026-04-28 00:44 | 32.89821 | -84.04417 | 43192 ft | 453 kts | 330° |
| 2026-04-28 00:44 | 32.95476 | -84.07728 | 43197 ft | 452 kts | 330° |
| 2026-04-28 00:45 | 33.01097 | -84.11023 | 43202 ft | 454 kts | 330° |
| 2026-04-28 00:45 | 33.06772 | -84.14355 | 43165 ft | 454 kts | 330° |
| 2026-04-28 00:46 | 33.12453 | -84.17696 | 43173 ft | 454 kts | 330° |
| 2026-04-28 00:46 | 33.18124 | -84.21036 | 43184 ft | 454 kts | 330° |
| 2026-04-28 00:47 | 33.23798 | -84.24382 | 43198 ft | 455 kts | 330° |
| 2026-04-28 00:47 | 33.29469 | -84.27731 | 43210 ft | 454 kts | 330° |
| 2026-04-28 00:48 | 33.35107 | -84.31065 | 43221 ft | 455 kts | 330° |
| 2026-04-28 00:48 | 33.40780 | -84.34426 | 43219 ft | 455 kts | 330° |
| 2026-04-28 00:49 | 33.46460 | -84.37795 | 43179 ft | 455 kts | 330° |
| 2026-04-28 00:49 | 33.52134 | -84.41165 | 43178 ft | 455 kts | 330° |
| 2026-04-28 00:50 | 33.57811 | -84.44542 | 43175 ft | 456 kts | 329° |
| 2026-04-28 00:50 | 33.63453 | -84.47905 | 43179 ft | 455 kts | 329° |
| 2026-04-28 00:51 | 33.69128 | -84.51290 | 43178 ft | 455 kts | 329° |
| 2026-04-28 00:51 | 33.74798 | -84.54679 | 43170 ft | 455 kts | 329° |
| 2026-04-28 00:52 | 33.80470 | -84.58073 | 43170 ft | 455 kts | 329° |
| 2026-04-28 00:52 | 33.86139 | -84.61471 | 43150 ft | 456 kts | 329° |
| 2026-04-28 00:53 | 33.91816 | -84.64878 | 43175 ft | 456 kts | 329° |
| 2026-04-28 00:53 | 33.97455 | -84.68268 | 43180 ft | 454 kts | 329° |
| 2026-04-28 00:54 | 34.03114 | -84.71675 | 43176 ft | 455 kts | 329° |
| 2026-04-28 00:54 | 34.08780 | -84.75091 | 43152 ft | 454 kts | 329° |
| 2026-04-28 00:55 | 34.14437 | -84.78507 | 43150 ft | 455 kts | 329° |
| 2026-04-28 00:55 | 34.20103 | -84.81934 | 43151 ft | 455 kts | 329° |
| 2026-04-28 00:56 | 34.24809 | -84.84784 | 43144 ft | 455 kts | 329° |
| 2026-04-28 00:56 | 34.30485 | -84.88227 | 43132 ft | 455 kts | 329° |
| 2026-04-28 00:57 | 34.36153 | -84.91669 | 43103 ft | 455 kts | 329° |
| 2026-04-28 00:57 | 34.41815 | -84.95113 | 43108 ft | 455 kts | 328° |
| 2026-04-28 00:58 | 34.47441 | -84.98541 | 43115 ft | 455 kts | 328° |
| 2026-04-28 00:58 | 34.53099 | -85.01992 | 43114 ft | 455 kts | 328° |
| 2026-04-28 00:59 | 34.58757 | -85.05450 | 43104 ft | 454 kts | 328° |
| 2026-04-28 00:59 | 34.64388 | -85.08896 | 43122 ft | 454 kts | 328° |
| 2026-04-28 01:00 | 34.70035 | -85.12358 | 43096 ft | 454 kts | 328° |
| 2026-04-28 01:00 | 34.75681 | -85.15823 | 43105 ft | 454 kts | 328° |
| 2026-04-28 01:01 | 34.81325 | -85.19294 | 43091 ft | 455 kts | 328° |
| 2026-04-28 01:01 | 34.86977 | -85.22774 | 43095 ft | 455 kts | 328° |
| 2026-04-28 01:02 | 34.92592 | -85.26238 | 43095 ft | 456 kts | 328° |
| 2026-04-28 01:02 | 34.98253 | -85.29734 | 42951 ft | 452 kts | 328° |
| 2026-04-28 01:02 | 35.01005 | -85.31428 | 42408 ft | 437 kts | 328° |
| 2026-04-28 01:03 | 35.03701 | -85.33099 | 41828 ft | 437 kts | 328° |
| 2026-04-28 01:03 | 35.06442 | -85.34811 | 41280 ft | 443 kts | 328° |
| 2026-04-28 01:03 | 35.09183 | -85.36506 | 40750 ft | 439 kts | 328° |
| 2026-04-28 01:03 | 35.11914 | -85.38189 | 40229 ft | 439 kts | 328° |
| 2026-04-28 01:04 | 35.14603 | -85.40042 | 39714 ft | 450 kts | 323° |
| 2026-04-28 01:04 | 35.17065 | -85.42310 | 39239 ft | 448 kts | 316° |
| 2026-04-28 01:04 | 35.19312 | -85.44982 | 38735 ft | 452 kts | 310° |
| 2026-04-28 01:04 | 35.21484 | -85.47771 | 38176 ft | 451 kts | 311° |
| 2026-04-28 01:05 | 35.23652 | -85.50518 | 37561 ft | 448 kts | 311° |
| 2026-04-28 01:05 | 35.25808 | -85.53252 | 36886 ft | 450 kts | 311° |
| 2026-04-28 01:05 | 35.27977 | -85.56028 | 36226 ft | 449 kts | 311° |
| 2026-04-28 01:05 | 35.30123 | -85.58777 | 35481 ft | 444 kts | 311° |
| 2026-04-28 01:06 | 35.32252 | -85.61496 | 34761 ft | 439 kts | 311° |
| 2026-04-28 01:06 | 35.34362 | -85.64190 | 34059 ft | 435 kts | 311° |
| 2026-04-28 01:06 | 35.36442 | -85.66855 | 33270 ft | 430 kts | 311° |
| 2026-04-28 01:06 | 35.38495 | -85.69487 | 32466 ft | 424 kts | 311° |
| 2026-04-28 01:07 | 35.40490 | -85.72046 | 31677 ft | 417 kts | 311° |
| 2026-04-28 01:07 | 35.42477 | -85.74595 | 30896 ft | 410 kts | 311° |
| 2026-04-28 01:07 | 35.44432 | -85.77107 | 30153 ft | 404 kts | 311° |
| 2026-04-28 01:07 | 35.46358 | -85.79582 | 29282 ft | 398 kts | 311° |
| 2026-04-28 01:08 | 35.48254 | -85.82020 | 28428 ft | 392 kts | 311° |
| 2026-04-28 01:08 | 35.50123 | -85.84425 | 27600 ft | 386 kts | 311° |
| 2026-04-28 01:08 | 35.51961 | -85.86795 | 26795 ft | 380 kts | 311° |
| 2026-04-28 01:08 | 35.53774 | -85.89130 | 26047 ft | 374 kts | 310° |
| 2026-04-28 01:09 | 35.55555 | -85.91428 | 25424 ft | 369 kts | 310° |
| 2026-04-28 01:09 | 35.57309 | -85.93715 | 24821 ft | 366 kts | 310° |
| 2026-04-28 01:09 | 35.59037 | -85.95999 | 24269 ft | 363 kts | 309° |
| 2026-04-28 01:09 | 35.60729 | -85.98227 | 23743 ft | 360 kts | 309° |
| 2026-04-28 01:10 | 35.62439 | -86.00466 | 23132 ft | 357 kts | 309° |
| 2026-04-28 01:10 | 35.64131 | -86.02685 | 22503 ft | 355 kts | 309° |
| 2026-04-28 01:10 | 35.65816 | -86.04903 | 21884 ft | 354 kts | 309° |
| 2026-04-28 01:10 | 35.67493 | -86.07111 | 21280 ft | 352 kts | 309° |
| 2026-04-28 01:11 | 35.69164 | -86.09309 | 20704 ft | 350 kts | 309° |
| 2026-04-28 01:11 | 35.70826 | -86.11498 | 20122 ft | 350 kts | 309° |
| 2026-04-28 01:11 | 35.72486 | -86.13686 | 19550 ft | 348 kts | 309° |
| 2026-04-28 01:11 | 35.74137 | -86.15864 | 18994 ft | 347 kts | 309° |
| 2026-04-28 01:12 | 35.75783 | -86.18037 | 18442 ft | 346 kts | 309° |
| 2026-04-28 01:12 | 35.77421 | -86.20201 | 17826 ft | 344 kts | 309° |
| 2026-04-28 01:12 | 35.79048 | -86.22349 | 17207 ft | 341 kts | 309° |
| 2026-04-28 01:12 | 35.80662 | -86.24483 | 16598 ft | 339 kts | 309° |
| 2026-04-28 01:13 | 35.82266 | -86.26606 | 15991 ft | 337 kts | 309° |
| 2026-04-28 01:13 | 35.85424 | -86.30787 | 14846 ft | 323 kts | 309° |
| 2026-04-28 01:13 | 35.86925 | -86.32775 | 14313 ft | 319 kts | 309° |
| 2026-04-28 01:14 | 35.88432 | -86.34779 | 13852 ft | 318 kts | 308° |
| 2026-04-28 01:14 | 35.89936 | -86.36777 | 13343 ft | 317 kts | 308° |
| 2026-04-28 01:14 | 35.91434 | -86.38763 | 12840 ft | 315 kts | 308° |
| 2026-04-28 01:14 | 35.92921 | -86.40740 | 12341 ft | 312 kts | 308° |
| 2026-04-28 01:15 | 35.94361 | -86.42649 | 11846 ft | 297 kts | 307° |
| 2026-04-28 01:15 | 35.95744 | -86.44488 | 11373 ft | 289 kts | 307° |
| 2026-04-28 01:15 | 35.97178 | -86.46212 | 10832 ft | 293 kts | 318° |
| 2026-04-28 01:15 | 35.99102 | -86.47165 | 10292 ft | 303 kts | 339° |
| 2026-04-28 01:16 | 36.01197 | -86.47577 | 9831 ft | 307 kts | 347° |
| 2026-04-28 01:16 | 36.03332 | -86.47783 | 9344 ft | 307 kts | 349° |
| 2026-04-28 01:16 | 36.05465 | -86.47952 | 8854 ft | 306 kts | 349° |
| 2026-04-28 01:16 | 36.07587 | -86.48123 | 8374 ft | 305 kts | 349° |
| 2026-04-28 01:17 | 36.09699 | -86.48289 | 7893 ft | 304 kts | 349° |
| 2026-04-28 01:17 | 36.11802 | -86.48456 | 7413 ft | 302 kts | 349° |
| 2026-04-28 01:17 | 36.13888 | -86.48625 | 6940 ft | 299 kts | 349° |
| 2026-04-28 01:17 | 36.15973 | -86.48787 | 6475 ft | 301 kts | 350° |
| 2026-04-28 01:18 | 36.18049 | -86.48956 | 5962 ft | 295 kts | 350° |
| 2026-04-28 01:18 | 36.20072 | -86.49134 | 5480 ft | 288 kts | 349° |
| 2026-04-28 01:18 | 36.22064 | -86.49315 | 4999 ft | 286 kts | 349° |
| 2026-04-28 01:18 | 36.24035 | -86.49503 | 4504 ft | 282 kts | 350° |
| 2026-04-28 01:19 | 36.25924 | -86.49970 | 3936 ft | 273 kts | 329° |
| 2026-04-28 01:19 | 36.27446 | -86.51232 | 3913 ft | 258 kts | 310° |
| 2026-04-28 01:19 | 36.28639 | -86.52861 | 3990 ft | 253 kts | 296° |
| 2026-04-28 01:19 | 36.29462 | -86.54741 | 4006 ft | 247 kts | 286° |
| 2026-04-28 01:20 | 36.30215 | -86.56645 | 3843 ft | 252 kts | 287° |
| 2026-04-28 01:20 | 36.30966 | -86.58522 | 3663 ft | 232 kts | 287° |
| 2026-04-28 01:20 | 36.31677 | -86.60290 | 3437 ft | 229 kts | 287° |
| 2026-04-28 01:20 | 36.32388 | -86.62067 | 3218 ft | 230 kts | 287° |
| 2026-04-28 01:21 | 36.33094 | -86.63854 | 2999 ft | 231 kts | 287° |
| 2026-04-28 01:21 | 36.33794 | -86.65648 | 2974 ft | 231 kts | 287° |
| 2026-04-28 01:21 | 36.34483 | -86.67410 | 2816 ft | 217 kts | 287° |
| 2026-04-28 01:21 | 36.35130 | -86.69027 | 2668 ft | 204 kts | 285° |
| 2026-04-28 01:22 | 36.35786 | -86.70582 | 2652 ft | 203 kts | 288° |
| 2026-04-28 01:22 | 36.36424 | -86.72100 | 2632 ft | 201 kts | 287° |
| 2026-04-28 01:22 | 36.37074 | -86.73660 | 2524 ft | 206 kts | 286° |
| 2026-04-28 01:22 | 36.37670 | -86.75246 | 2402 ft | 193 kts | 271° |
| 2026-04-28 01:23 | 36.37622 | -86.76772 | 2445 ft | 170 kts | 245° |
| 2026-04-28 01:23 | 36.37195 | -86.78114 | 2450 ft | 166 kts | 232° |
| 2026-04-28 01:23 | 36.36659 | -86.79395 | 2459 ft | 167 kts | 233° |
| 2026-04-28 01:23 | 36.36061 | -86.80611 | 2461 ft | 165 kts | 224° |
| 2026-04-28 01:24 | 36.35331 | -86.81682 | 2509 ft | 160 kts | 221° |
| 2026-04-28 01:24 | 36.34595 | -86.82663 | 2492 ft | 150 kts | 212° |
| 2026-04-28 01:24 | 36.33724 | -86.83362 | 2494 ft | 150 kts | 205° |
| 2026-04-28 01:24 | 36.32755 | -86.83871 | 2501 ft | 153 kts | 195° |
| 2026-04-28 01:25 | 36.31727 | -86.84254 | 2495 ft | 154 kts | 193° |
| 2026-04-28 01:25 | 36.30748 | -86.84594 | 2490 ft | 135 kts | 191° |
| 2026-04-28 01:25 | 36.29900 | -86.84872 | 2391 ft | 123 kts | 190° |
| 2026-04-28 01:25 | 36.29117 | -86.85129 | 2194 ft | 111 kts | 191° |
| 2026-04-28 01:26 | 36.28367 | -86.85374 | 2000 ft | 110 kts | 191° |
| 2026-04-28 01:26 | 36.27614 | -86.85617 | 2013 ft | 115 kts | 190° |
| 2026-04-28 01:26 | 36.26817 | -86.85875 | 2031 ft | 122 kts | 190° |
| 2026-04-28 01:26 | 36.26008 | -86.86139 | 1935 ft | 115 kts | 192° |
| 2026-04-28 01:27 | 36.25282 | -86.86377 | 1726 ft | 108 kts | 189° |
| 2026-04-28 01:27 | 36.24535 | -86.86618 | 1518 ft | 112 kts | 190° |
| 2026-04-28 01:27 | 36.23775 | -86.86863 | 1273 ft | 114 kts | 190° |
| 2026-04-28 01:27 | 36.22994 | -86.87113 | 1195 ft | 120 kts | 192° |
| 2026-04-28 01:28 | 36.22197 | -86.87352 | 1172 ft | 118 kts | 194° |
| 2026-04-28 01:28 | 36.21394 | -86.87638 | 976 ft | 121 kts | 193° |
| 2026-04-28 01:28 | 36.20594 | -86.87903 | 829 ft | 115 kts | 193° |
| 2026-04-28 01:28 | 36.19845 | -86.88152 | 712 ft | 109 kts | 193° |
| 2026-04-28 01:29 | 36.19132 | -86.88382 | 549 ft | 100 kts | 194° |
| 2026-04-28 01:29 | 36.18534 | -86.88573 | 507 ft | 69 kts | 194° |
| 2026-04-28 01:29 | 36.18253 | -86.88663 | 506 ft | 27 kts | 195° |
| 2026-04-28 01:29 | 36.18089 | -86.88718 | 505 ft | 22 kts | 195° |
| 2026-04-28 01:30 | 36.17970 | -86.88758 | 506 ft | 14 kts | 195° |
| 2026-04-28 01:30 | 36.17924 | -86.88707 | 506 ft | 9 kts | 103° |
| 2026-04-28 01:30 | 36.17892 | -86.88649 | 507 ft | 10 kts | 173° |
| 2026-04-28 01:30 | 36.17848 | -86.88602 | 507 ft | 9 kts | 106° |
| 2026-04-28 01:31 | 36.17833 | -86.88529 | 507 ft | 9 kts | 104° |
| 2026-04-28 01:31 | 36.17817 | -86.88457 | 507 ft | 9 kts | 105° |
| 2026-04-28 01:31 | 36.17816 | -86.88379 | 507 ft | 10 kts | 96° |
| 2026-04-28 01:31 | 36.17810 | -86.88296 | 507 ft | 8 kts | 89° |
| 2026-04-28 01:32 | 36.17794 | -86.88262 | 507 ft | 1 kts | 174° |
| 2026-04-28 01:32 | 36.17786 | -86.88264 | 507 ft | 1 kts | 195° |
| 2026-04-28 01:32 | 36.17779 | -86.88266 | 507 ft | 1 kts | 195° |
| 2026-04-28 01:32 | 36.17773 | -86.88268 | 507 ft | 1 kts | 195° |
| 2026-04-28 01:33 | 36.17763 | -86.88271 | 507 ft | 2 kts | 193° |
| 2026-04-28 01:33 | 36.17762 | -86.88272 | 507 ft | 0 kts | 193° |